createdAt,value
2022-09-26T00:01:42.777Z,9.50
2022-09-26T00:04:15.816Z,9.40
2022-09-26T00:06:44.087Z,9.50
2022-09-26T00:09:13.495Z,9.50
2022-09-26T00:11:42.196Z,9.60
2022-09-26T00:14:14.584Z,9.60
2022-09-26T00:16:43.340Z,9.60
2022-09-26T00:19:12.108Z,9.70
2022-09-26T00:21:41.860Z,9.70
2022-09-26T00:24:10.102Z,9.70
2022-09-26T00:26:39.157Z,9.70
2022-09-26T00:29:09.913Z,9.70
2022-09-26T00:31:41.398Z,9.70
2022-09-26T00:34:10.964Z,9.70
2022-09-26T00:36:39.225Z,9.60
2022-09-26T00:39:10.528Z,9.70
2022-09-26T00:41:39.621Z,9.70
2022-09-26T00:44:36.237Z,9.70
2022-09-26T00:47:05.112Z,9.70
2022-09-26T00:49:36.530Z,9.60
2022-09-26T00:52:10.933Z,9.60
2022-09-26T00:54:45.175Z,9.60
2022-09-26T00:57:17.031Z,9.60
2022-09-26T00:59:50.180Z,9.60
2022-09-26T01:02:18.858Z,9.70
2022-09-26T01:04:49.012Z,9.70
2022-09-26T01:07:21.788Z,9.80
2022-09-26T01:09:52.736Z,9.90
2022-09-26T01:12:22.119Z,10.00
2022-09-26T01:14:53.462Z,10.10
2022-09-26T01:17:24.316Z,10.10
2022-09-26T01:20:08.203Z,10.10
2022-09-26T01:22:58.484Z,10.10
2022-09-26T01:25:40.278Z,10.10
2022-09-26T01:28:24.614Z,10.30
2022-09-26T01:31:02.503Z,10.30
2022-09-26T01:33:51.340Z,10.40
2022-09-26T01:36:46.119Z,10.40
2022-09-26T01:39:30.179Z,10.50
2022-09-26T01:42:08.727Z,10.50
2022-09-26T01:44:42.387Z,10.50
2022-09-26T01:47:15.619Z,10.60
2022-09-26T01:49:53.847Z,10.60
2022-09-26T01:52:28.511Z,10.60
2022-09-26T01:55:02.765Z,10.60
2022-09-26T01:57:34.293Z,10.60
2022-09-26T02:00:08.148Z,10.70
2022-09-26T02:02:46.629Z,10.70
2022-09-26T02:05:21.799Z,10.70
2022-09-26T02:07:55.930Z,10.70
2022-09-26T02:10:28.212Z,10.70
2022-09-26T02:13:00.425Z,10.70
2022-09-26T02:15:35.222Z,10.70
2022-09-26T02:18:13.552Z,10.70
2022-09-26T02:20:49.586Z,10.70
2022-09-26T02:23:18.243Z,10.80
2022-09-26T02:25:46.726Z,10.80
2022-09-26T02:28:16.103Z,10.80
2022-09-26T02:30:46.809Z,10.80
2022-09-26T02:33:17.276Z,10.80
2022-09-26T02:35:57.756Z,10.70
2022-09-26T02:38:31.941Z,10.70
2022-09-26T02:41:19.952Z,10.70
2022-09-26T02:44:11.373Z,10.70
2022-09-26T02:46:52.575Z,10.70
2022-09-26T02:49:36.721Z,10.70
2022-09-26T02:52:19.949Z,10.70
2022-09-26T02:54:56.805Z,10.80
2022-09-26T02:57:38.046Z,10.90
2022-09-26T03:00:10.252Z,10.90
2022-09-26T03:02:44.138Z,11.00
2022-09-26T03:05:21.466Z,11.00
2022-09-26T03:07:56.507Z,11.00
2022-09-26T03:10:27.086Z,11.00
2022-09-26T03:12:57.255Z,11.00
2022-09-26T03:15:28.582Z,11.00
2022-09-26T03:18:00.305Z,11.00
2022-09-26T03:20:30.544Z,10.90
2022-09-26T03:22:58.896Z,10.90
2022-09-26T03:25:28.968Z,10.90
2022-09-26T03:28:06.516Z,10.90
2022-09-26T03:30:35.395Z,10.90
2022-09-26T03:33:29.838Z,11.00
2022-09-26T03:36:00.170Z,10.90
2022-09-26T03:38:30.032Z,10.90
2022-09-26T03:41:09.434Z,10.90
2022-09-26T03:44:04.244Z,10.90
2022-09-26T03:46:52.460Z,10.90
2022-09-26T03:49:20.773Z,11.00
2022-09-26T03:51:50.336Z,11.00
2022-09-26T03:54:19.411Z,11.00
2022-09-26T03:56:49.002Z,11.10
2022-09-26T03:59:18.271Z,11.10
2022-09-26T04:01:48.606Z,11.10
2022-09-26T04:04:16.968Z,11.10
2022-09-26T04:06:46.074Z,11.00
2022-09-26T04:09:17.623Z,11.00
2022-09-26T04:11:52.027Z,11.00
2022-09-26T04:14:20.716Z,11.00
2022-09-26T04:16:54.156Z,11.00
2022-09-26T04:19:29.277Z,11.00
2022-09-26T04:21:59.503Z,11.10
2022-09-26T04:24:29.321Z,11.10
2022-09-26T04:26:57.668Z,11.10
2022-09-26T04:29:27.207Z,11.10
2022-09-26T04:32:03.608Z,11.10
2022-09-26T04:34:41.075Z,11.10
2022-09-26T04:37:12.036Z,11.10
2022-09-26T04:39:42.083Z,11.00
2022-09-26T04:42:10.384Z,11.10
2022-09-26T04:44:38.649Z,11.00
2022-09-26T04:47:07.185Z,10.90
2022-09-26T04:49:55.557Z,11.00
2022-09-26T04:52:23.828Z,11.00
2022-09-26T04:54:53.457Z,10.90
2022-09-26T04:57:21.767Z,10.90
2022-09-26T04:59:49.930Z,10.90
2022-09-26T05:02:20.378Z,10.90
2022-09-26T05:04:49.744Z,10.90
2022-09-26T05:07:19.501Z,10.90
2022-09-26T05:09:48.511Z,10.90
2022-09-26T05:12:20.751Z,11.00
2022-09-26T05:14:54.113Z,11.00
2022-09-26T05:17:24.300Z,11.00
2022-09-26T05:19:54.023Z,11.00
2022-09-26T05:22:26.428Z,11.00
2022-09-26T05:25:12.599Z,11.00
2022-09-26T05:27:42.481Z,11.00
2022-09-26T05:30:12.678Z,11.00
2022-09-26T05:32:41.477Z,11.00
2022-09-26T05:35:10.889Z,11.00
2022-09-26T05:37:42.394Z,11.10
2022-09-26T05:40:29.773Z,11.10
2022-09-26T05:43:03.108Z,11.10
2022-09-26T05:45:32.714Z,11.20
2022-09-26T05:48:03.508Z,11.10
2022-09-26T05:50:31.979Z,11.10
2022-09-26T05:53:00.833Z,11.20
2022-09-26T05:55:31.084Z,11.10
2022-09-26T05:58:19.888Z,11.20
2022-09-26T06:01:09.978Z,11.20
2022-09-26T06:03:39.207Z,11.20
2022-09-26T06:06:13.180Z,11.30
2022-09-26T06:08:41.991Z,11.40
2022-09-26T06:11:28.016Z,11.40
2022-09-26T06:14:00.461Z,11.50
2022-09-26T06:16:29.418Z,11.60
2022-09-26T06:18:58.424Z,11.70
2022-09-26T06:21:27.466Z,11.70
2022-09-26T06:24:02.045Z,11.80
2022-09-26T06:26:31.270Z,11.80
2022-09-26T06:29:01.107Z,11.90
2022-09-26T06:31:35.234Z,12.00
2022-09-26T06:34:13.282Z,12.00
2022-09-26T06:37:00.767Z,12.10
2022-09-26T06:39:35.757Z,12.20
2022-09-26T06:42:05.707Z,12.30
2022-09-26T06:44:51.907Z,12.20
2022-09-26T06:47:31.470Z,12.30
2022-09-26T06:50:22.958Z,12.30
2022-09-26T06:52:55.074Z,12.40
2022-09-26T06:55:25.461Z,12.40
2022-09-26T06:57:54.014Z,12.40
2022-09-26T07:00:26.969Z,12.50
2022-09-26T07:03:26.590Z,12.50
2022-09-26T07:06:07.533Z,12.50
2022-09-26T07:09:01.115Z,12.50
2022-09-26T07:12:13.642Z,12.60
2022-09-26T07:14:33.394Z,12.60
2022-09-26T07:17:14.405Z,12.60
2022-09-26T07:19:53.857Z,12.60
2022-09-26T07:22:43.624Z,12.60
2022-09-26T07:25:13.427Z,12.70
2022-09-26T07:27:42.349Z,12.60
2022-09-26T07:30:11.523Z,12.50
2022-09-26T07:32:50.855Z,12.50
2022-09-26T07:35:35.403Z,12.50
2022-09-26T07:38:05.071Z,12.60
2022-09-26T07:40:33.911Z,12.60
2022-09-26T07:43:19.791Z,12.60
2022-09-26T07:46:15.474Z,12.70
2022-09-26T07:49:06.805Z,12.70
2022-09-26T07:51:55.968Z,12.70
2022-09-26T07:54:28.780Z,12.70
2022-09-26T07:57:15.621Z,12.70
2022-09-26T08:00:08.001Z,12.80
2022-09-26T08:02:45.284Z,12.80
2022-09-26T08:05:20.031Z,12.80
2022-09-26T08:07:50.114Z,12.80
2022-09-26T08:10:36.615Z,12.80
2022-09-26T08:13:23.187Z,12.90
2022-09-26T08:16:10.485Z,12.90
2022-09-26T08:18:42.876Z,13.00
2022-09-26T08:21:12.542Z,13.00
2022-09-26T08:23:40.780Z,13.00
2022-09-26T08:26:27.389Z,13.10
2022-09-26T08:29:04.513Z,13.10
2022-09-26T08:31:33.565Z,13.20
2022-09-26T08:34:02.229Z,13.20
2022-09-26T08:36:32.845Z,13.10
2022-09-26T08:39:24.174Z,13.10
2022-09-26T08:42:46.070Z,13.00
2022-09-26T08:46:06.737Z,12.90
2022-09-26T08:49:02.027Z,12.90
2022-09-26T08:51:36.450Z,12.80
2022-09-26T08:54:12.162Z,12.70
2022-09-26T08:56:45.128Z,12.60
2022-09-26T08:59:25.510Z,12.60
2022-09-26T09:01:57.771Z,12.50
2022-09-26T09:04:43.006Z,12.50
2022-09-26T09:07:21.998Z,12.50
2022-09-26T09:09:52.700Z,12.50
2022-09-26T09:12:53.625Z,12.50
2022-09-26T09:15:53.993Z,12.40
2022-09-26T09:18:35.297Z,12.50
2022-09-26T09:21:40.828Z,12.50
2022-09-26T09:24:43.128Z,12.40
2022-09-26T09:27:53.138Z,12.40
2022-09-26T09:30:32.780Z,12.40
2022-09-26T09:33:26.072Z,12.40
2022-09-26T09:36:18.221Z,12.40
2022-09-26T09:39:25.006Z,12.30
2022-09-26T09:42:08.330Z,12.30
2022-09-26T09:44:47.111Z,12.30
2022-09-26T09:47:17.430Z,12.20
2022-09-26T09:49:48.413Z,12.20
2022-09-26T09:52:36.792Z,12.10
2022-09-26T09:55:17.879Z,12.10
2022-09-26T09:58:12.207Z,12.00
2022-09-26T10:00:51.590Z,12.00
2022-09-26T10:03:29.588Z,12.10
2022-09-26T10:06:01.133Z,12.00
2022-09-26T10:08:41.737Z,12.00
2022-09-26T10:11:52.464Z,12.00
2022-09-26T10:14:47.124Z,12.00
2022-09-26T10:17:35.402Z,12.10
2022-09-26T10:20:35.349Z,12.10
2022-09-26T10:23:10.026Z,12.10
2022-09-26T10:25:38.365Z,12.20
2022-09-26T10:28:06.571Z,12.30
2022-09-26T10:30:50.093Z,12.40
2022-09-26T10:33:30.032Z,12.50
2022-09-26T10:36:19.695Z,12.60
2022-09-26T10:39:12.151Z,12.70
2022-09-26T10:41:42.287Z,12.80
2022-09-26T10:44:24.052Z,12.90
2022-09-26T10:47:14.542Z,13.00
2022-09-26T10:50:04.663Z,13.10
2022-09-26T10:52:58.311Z,13.10
2022-09-26T10:55:33.428Z,13.20
2022-09-26T10:58:10.152Z,13.30
2022-09-26T11:00:44.999Z,13.30
2022-09-26T11:03:22.490Z,13.30
2022-09-26T11:06:24.237Z,13.30
2022-09-26T11:08:58.460Z,13.40
2022-09-26T11:11:48.044Z,13.40
2022-09-26T11:14:28.297Z,13.30
2022-09-26T11:17:04.327Z,13.20
2022-09-26T11:19:39.970Z,13.20
2022-09-26T11:22:18.464Z,13.10
2022-09-26T11:24:56.066Z,13.20
2022-09-26T11:27:31.413Z,13.10
2022-09-26T11:30:09.369Z,13.10
2022-09-26T11:32:44.950Z,13.10
2022-09-26T11:35:52.947Z,13.10
2022-09-26T11:38:38.903Z,13.10
2022-09-26T11:41:36.702Z,13.20
2022-09-26T11:44:25.977Z,13.30
2022-09-26T11:47:46.686Z,13.50
2022-09-26T11:50:41.327Z,13.60
2022-09-26T11:53:40.967Z,13.60
2022-09-26T11:56:23.808Z,13.70
2022-09-26T11:59:00.983Z,13.80
2022-09-26T12:01:39.276Z,13.70
2022-09-26T12:04:38.115Z,13.80
2022-09-26T12:07:17.951Z,13.90
2022-09-26T12:10:03.579Z,14.10
2022-09-26T12:12:40.456Z,14.20
2022-09-26T12:15:22.019Z,14.20
2022-09-26T12:18:13.811Z,14.20
2022-09-26T12:20:53.369Z,14.20
2022-09-26T12:23:30.136Z,14.10
2022-09-26T12:26:09.615Z,14.20
2022-09-26T12:29:04.470Z,14.20
2022-09-26T12:31:48.315Z,14.20
2022-09-26T12:34:32.351Z,14.10
2022-09-26T12:37:14.272Z,14.10
2022-09-26T12:40:19.076Z,14.10
2022-09-26T12:43:02.734Z,14.20
2022-09-26T12:45:58.365Z,14.10
2022-09-26T12:48:40.911Z,14.10
2022-09-26T12:51:22.252Z,14.10
2022-09-26T12:54:11.064Z,14.10
2022-09-26T12:56:49.044Z,14.10
2022-09-26T12:59:38.403Z,14.10
2022-09-26T13:02:23.688Z,14.10
2022-09-26T13:05:34.239Z,14.10
2022-09-26T13:08:08.346Z,14.00
2022-09-26T13:10:48.116Z,13.90
2022-09-26T13:13:53.012Z,13.80
2022-09-26T13:16:34.130Z,13.90
2022-09-26T13:19:08.834Z,13.70
2022-09-26T13:21:45.489Z,13.70
2022-09-26T13:24:19.459Z,13.60
2022-09-26T13:26:54.149Z,13.60
2022-09-26T13:29:27.487Z,13.50
2022-09-26T13:32:17.612Z,13.50
2022-09-26T13:34:52.117Z,13.40
2022-09-26T13:37:31.607Z,13.40
2022-09-26T13:40:09.212Z,13.40
2022-09-26T13:42:45.148Z,13.40
2022-09-26T13:45:26.555Z,13.40
2022-09-26T13:48:02.292Z,13.40
2022-09-26T13:50:36.777Z,13.40
2022-09-26T13:53:13.075Z,13.40
2022-09-26T13:55:43.273Z,13.50
2022-09-26T13:58:21.895Z,13.40
2022-09-26T14:00:53.255Z,13.40
2022-09-26T14:03:40.966Z,13.40
2022-09-26T14:06:19.911Z,13.50
2022-09-26T14:09:25.712Z,13.50
2022-09-26T14:12:37.742Z,13.50
2022-09-26T14:15:22.775Z,13.60
2022-09-26T14:18:18.885Z,13.60
2022-09-26T14:21:09.035Z,13.60
2022-09-26T14:23:40.600Z,13.50
2022-09-26T14:26:11.984Z,13.40
2022-09-26T14:28:47.937Z,13.30
2022-09-26T14:31:44.058Z,13.30
2022-09-26T14:34:21.358Z,13.20
2022-09-26T14:36:52.442Z,13.20
2022-09-26T14:39:33.339Z,13.30
2022-09-26T14:42:16.627Z,13.30
2022-09-26T14:44:55.585Z,13.30
2022-09-26T14:47:24.718Z,13.20
2022-09-26T14:50:03.076Z,13.20
2022-09-26T14:52:34.047Z,13.20
2022-09-26T14:55:06.185Z,13.20
2022-09-26T14:57:36.568Z,13.20
2022-09-26T15:00:35.902Z,13.20
2022-09-26T15:03:08.848Z,13.30
2022-09-26T15:05:37.761Z,13.40
2022-09-26T15:08:23.670Z,13.30
2022-09-26T15:10:54.073Z,13.30
2022-09-26T15:13:32.906Z,13.20
2022-09-26T15:16:16.660Z,13.20
2022-09-26T15:18:48.888Z,13.20
2022-09-26T15:21:27.085Z,13.20
2022-09-26T15:23:58.507Z,13.20
2022-09-26T15:26:28.992Z,13.20
2022-09-26T15:28:59.215Z,13.20
2022-09-26T15:31:30.789Z,13.10
2022-09-26T15:34:02.819Z,13.00
2022-09-26T15:36:32.446Z,12.90
2022-09-26T15:39:03.362Z,12.90
2022-09-26T15:41:49.015Z,12.80
2022-09-26T15:44:23.305Z,12.80
2022-09-26T15:46:51.869Z,12.80
2022-09-26T15:49:22.573Z,12.70
2022-09-26T15:51:54.705Z,12.60
2022-09-26T15:54:29.063Z,12.60
2022-09-26T15:57:02.039Z,12.70
2022-09-26T15:59:34.717Z,12.60
2022-09-26T16:02:05.170Z,12.60
2022-09-26T16:04:34.655Z,12.60
2022-09-26T16:07:05.684Z,12.50
2022-09-26T16:09:36.996Z,12.50
2022-09-26T16:12:12.900Z,12.50
2022-09-26T16:14:48.779Z,12.50
2022-09-26T16:17:24.428Z,12.50
2022-09-26T16:19:54.600Z,12.50
2022-09-26T16:22:36.359Z,12.50
2022-09-26T16:28:21.025Z,12.50
2022-09-26T16:31:03.715Z,12.50
2022-09-26T16:33:33.707Z,12.50
2022-09-26T16:36:15.242Z,12.50
2022-09-26T16:38:43.737Z,12.50
2022-09-26T16:41:48.835Z,12.50
2022-09-26T16:44:27.434Z,12.50
2022-09-26T16:47:01.957Z,12.50
2022-09-26T16:49:46.336Z,12.40
2022-09-26T16:52:27.117Z,12.50
2022-09-26T16:54:56.523Z,12.50
2022-09-26T16:57:27.293Z,12.50
2022-09-26T17:00:21.656Z,12.50
2022-09-26T17:02:49.016Z,12.40
2022-09-26T17:05:19.845Z,12.40
2022-09-26T17:07:50.852Z,12.40
2022-09-26T17:10:20.963Z,12.40
2022-09-26T17:12:51.423Z,12.40
2022-09-26T17:15:27.334Z,12.40
2022-09-26T17:17:56.986Z,12.40
2022-09-26T17:20:27.049Z,12.40
2022-09-26T17:22:55.804Z,12.30
2022-09-26T17:25:26.010Z,12.30
2022-09-26T17:27:59.643Z,12.30
2022-09-26T17:30:30.001Z,12.30
2022-09-26T17:32:59.084Z,12.20
2022-09-26T17:35:29.530Z,12.20
2022-09-26T17:37:58.134Z,12.20
2022-09-26T17:40:28.222Z,12.10
2022-09-26T17:42:59.783Z,12.10
2022-09-26T17:45:31.358Z,12.10
2022-09-26T17:48:02.261Z,12.10
2022-09-26T17:50:32.401Z,12.00
2022-09-26T17:53:03.633Z,11.90
2022-09-26T17:55:33.446Z,12.00
2022-09-26T17:58:02.398Z,11.90
2022-09-26T18:00:36.062Z,12.00
2022-09-26T18:03:05.121Z,12.00
2022-09-26T18:05:36.724Z,11.90
2022-09-26T18:08:10.250Z,11.90
2022-09-26T18:10:43.719Z,11.90
2022-09-26T18:13:15.383Z,11.90
2022-09-26T18:15:45.099Z,11.90
2022-09-26T18:18:16.389Z,11.80
2022-09-26T18:20:45.555Z,11.80
2022-09-26T18:23:17.759Z,11.80
2022-09-26T18:25:48.231Z,11.80
2022-09-26T18:28:19.210Z,11.80
2022-09-26T18:30:57.535Z,11.70
2022-09-26T18:33:28.980Z,11.70
2022-09-26T18:35:58.332Z,11.80
2022-09-26T18:38:26.731Z,11.70
2022-09-26T18:40:58.521Z,11.80
2022-09-26T18:43:31.984Z,11.70
2022-09-26T18:46:02.372Z,11.70
2022-09-26T18:48:33.944Z,11.70
2022-09-26T18:51:03.363Z,11.70
2022-09-26T18:53:37.083Z,11.70
2022-09-26T18:56:23.194Z,11.60
2022-09-26T18:58:56.992Z,11.60
2022-09-26T19:01:30.253Z,11.60
2022-09-26T19:04:01.712Z,11.60
2022-09-26T19:06:33.179Z,11.60
2022-09-26T19:09:04.944Z,11.60
2022-09-26T19:11:35.040Z,11.60
2022-09-26T19:14:13.755Z,11.60
2022-09-26T19:16:43.858Z,11.60
2022-09-26T19:19:12.543Z,11.60
2022-09-26T19:21:42.499Z,11.60
2022-09-26T19:24:20.550Z,11.60
2022-09-26T19:26:51.276Z,11.60
2022-09-26T19:29:26.845Z,11.50
2022-09-26T19:31:57.037Z,11.50
2022-09-26T19:34:28.184Z,11.50
2022-09-26T19:37:01.328Z,11.60
2022-09-26T19:39:29.773Z,11.60
2022-09-26T19:41:58.016Z,11.60
2022-09-26T19:44:26.357Z,11.60
2022-09-26T19:46:56.296Z,11.60
2022-09-26T19:49:27.306Z,11.50
2022-09-26T19:51:55.820Z,11.50
2022-09-26T19:54:24.327Z,11.50
2022-09-26T19:56:52.588Z,11.60
2022-09-26T19:59:25.367Z,11.60
2022-09-26T20:01:57.388Z,11.50
2022-09-26T20:04:25.978Z,11.50
2022-09-26T20:06:54.467Z,11.50
2022-09-26T20:09:22.946Z,11.50
2022-09-26T20:11:51.255Z,11.50
2022-09-26T20:14:25.379Z,11.50
2022-09-26T20:16:58.500Z,11.50
2022-09-26T20:19:35.215Z,11.50
2022-09-26T20:22:05.966Z,11.50
2022-09-26T20:24:36.499Z,11.50
2022-09-26T20:27:08.164Z,11.50
2022-09-26T20:29:50.902Z,11.50
2022-09-26T20:32:20.946Z,11.50
2022-09-26T20:34:49.519Z,11.40
2022-09-26T20:37:19.831Z,11.40
2022-09-26T20:39:48.458Z,11.50
2022-09-26T20:42:19.934Z,11.40
2022-09-26T20:44:50.970Z,11.50
2022-09-26T20:47:21.575Z,11.50
2022-09-26T20:49:53.741Z,11.50
2022-09-26T20:52:25.235Z,11.50
2022-09-26T20:54:53.897Z,11.50
2022-09-26T20:57:23.178Z,11.50
2022-09-26T20:59:52.053Z,11.60
2022-09-26T21:02:31.019Z,11.50
2022-09-26T21:05:01.539Z,11.50
2022-09-26T21:07:32.270Z,11.50
2022-09-26T21:10:00.597Z,11.50
2022-09-26T21:12:28.921Z,11.50
2022-09-26T21:14:57.162Z,11.50
2022-09-26T21:17:29.866Z,11.50
2022-09-26T21:19:58.237Z,11.50
2022-09-26T21:22:55.681Z,11.50
2022-09-26T21:25:25.488Z,11.50
2022-09-26T21:27:57.092Z,11.50
2022-09-26T21:30:25.422Z,11.40
2022-09-26T21:32:58.764Z,11.50
2022-09-26T21:35:30.895Z,11.50
2022-09-26T21:38:01.808Z,11.50
2022-09-26T21:40:32.777Z,11.50
2022-09-26T21:43:07.556Z,11.60
2022-09-26T21:45:36.172Z,11.60
2022-09-26T21:48:06.239Z,11.50
2022-09-26T21:50:34.817Z,11.50
2022-09-26T21:53:08.552Z,11.50
2022-09-26T21:55:39.919Z,11.60
2022-09-26T21:58:13.111Z,11.50
2022-09-26T22:00:42.008Z,11.60
2022-09-26T22:03:11.928Z,11.60
2022-09-26T22:05:40.635Z,11.60
2022-09-26T22:08:09.042Z,11.60
2022-09-26T22:10:38.368Z,11.60
2022-09-26T22:13:06.733Z,11.60
2022-09-26T22:15:35.308Z,11.60
2022-09-26T22:18:03.829Z,11.70
2022-09-26T22:20:33.579Z,11.70
2022-09-26T22:23:01.931Z,11.70
2022-09-26T22:25:30.729Z,11.60
2022-09-26T22:27:59.847Z,11.60
2022-09-26T22:30:28.261Z,11.60
2022-09-26T22:32:56.817Z,11.60
2022-09-26T22:35:25.371Z,11.60
2022-09-26T22:37:55.035Z,11.60
2022-09-26T22:40:23.428Z,11.60
2022-09-26T22:42:51.996Z,11.60
2022-09-26T22:45:20.592Z,11.60
2022-09-26T22:47:48.894Z,11.50
2022-09-26T22:50:17.237Z,11.50
2022-09-26T22:52:46.900Z,11.50
2022-09-26T22:55:16.752Z,11.50
2022-09-26T22:57:45.979Z,11.40
2022-09-26T23:00:15.019Z,11.40
2022-09-26T23:02:43.814Z,11.50
2022-09-26T23:05:12.276Z,11.50
2022-09-26T23:07:40.577Z,11.50
2022-09-26T23:10:10.549Z,11.50
2022-09-26T23:12:40.494Z,11.50
2022-09-26T23:15:09.602Z,11.50
2022-09-26T23:17:37.891Z,11.50
2022-09-26T23:20:07.325Z,11.50
2022-09-26T23:22:35.676Z,11.50
2022-09-26T23:25:03.994Z,11.50
2022-09-26T23:27:32.295Z,11.50
2022-09-26T23:30:01.944Z,11.50
2022-09-26T23:32:30.225Z,11.50
2022-09-26T23:34:58.508Z,11.40
2022-09-26T23:37:27.007Z,11.40
2022-09-26T23:39:55.325Z,11.40
2022-09-26T23:42:23.602Z,11.30
2022-09-26T23:44:51.866Z,11.30
2022-09-26T23:47:21.584Z,11.20
2022-09-26T23:49:49.839Z,11.30
2022-09-26T23:52:18.367Z,11.20
2022-09-26T23:54:46.652Z,11.20
2022-09-26T23:57:14.919Z,11.20
2022-09-26T23:59:43.284Z,11.20
